createdAt,value
2018-08-25T00:00:02.075Z,99670.08
2018-08-25T00:02:32.369Z,99675.68
2018-08-25T00:05:02.390Z,99673.20
2018-08-25T00:07:32.302Z,99673.76
2018-08-25T00:10:02.237Z,99671.03
2018-08-25T00:12:32.189Z,99672.38
2018-08-25T00:15:02.442Z,99672.85
2018-08-25T00:17:32.304Z,99669.12
2018-08-25T00:20:02.132Z,99671.10
2018-08-25T00:22:33.884Z,99668.05
2018-08-25T00:25:04.178Z,99671.84
2018-08-25T00:27:34.250Z,99669.03
2018-08-25T00:30:04.850Z,99678.62
2018-08-25T00:32:34.732Z,99677.27
2018-08-25T00:35:04.629Z,99676.47
2018-08-25T00:37:34.675Z,99685.12
2018-08-25T00:40:05.293Z,99690.31
2018-08-25T00:42:35.141Z,99697.13
2018-08-25T00:45:05.290Z,99694.64
2018-08-25T00:47:35.193Z,99696.09
2018-08-25T00:50:05.320Z,99705.78
2018-08-25T00:52:35.172Z,99708.96
2018-08-25T00:55:05.190Z,99710.50
2018-08-25T00:57:35.273Z,99713.29
2018-08-25T01:00:05.631Z,99712.98
2018-08-25T01:02:35.665Z,99715.67
2018-08-25T01:05:05.558Z,99718.66
2018-08-25T01:07:35.465Z,99724.63
2018-08-25T01:10:05.481Z,99727.97
2018-08-25T01:12:35.368Z,99730.54
2018-08-25T01:15:05.289Z,99734.29
2018-08-25T01:17:35.219Z,99735.32
2018-08-25T01:20:05.177Z,99728.12
2018-08-25T01:22:35.246Z,99739.78
2018-08-25T01:25:05.487Z,99741.52
2018-08-25T01:27:35.519Z,99743.89
2018-08-25T01:30:05.581Z,99744.70
2018-08-25T01:32:35.711Z,99750.37
2018-08-25T01:35:05.645Z,99752.44
2018-08-25T01:37:35.441Z,99753.47
2018-08-25T01:40:05.549Z,99758.66
2018-08-25T01:42:35.398Z,99770.58
2018-08-25T01:45:06.261Z,99768.73
2018-08-25T01:47:36.337Z,99770.77
2018-08-25T01:50:06.397Z,99753.86
2018-08-25T01:52:36.277Z,99745.52
2018-08-25T01:55:06.725Z,99740.69
2018-08-25T01:57:36.538Z,99741.02
2018-08-25T02:00:07.321Z,99748.84
2018-08-25T02:02:37.234Z,99735.23
2018-08-25T02:05:07.346Z,99736.38
2018-08-25T02:07:37.212Z,99735.13
2018-08-25T02:10:07.270Z,99741.95
2018-08-25T02:12:37.425Z,99737.20
2018-08-25T02:15:07.743Z,99729.79
2018-08-25T02:17:37.981Z,99733.59
2018-08-25T02:20:08.282Z,99731.31
2018-08-25T02:22:38.102Z,99737.91
2018-08-25T02:25:08.273Z,99737.00
2018-08-25T02:27:38.839Z,99734.42
2018-08-25T02:30:09.057Z,99743.80
2018-08-25T02:32:39.072Z,99727.73
2018-08-25T02:35:08.938Z,99710.81
2018-08-25T02:37:38.889Z,99712.46
2018-08-25T02:40:08.836Z,99706.69
2018-08-25T02:42:38.878Z,99705.05
2018-08-25T02:45:08.767Z,99695.98
2018-08-25T02:47:38.585Z,99696.28
2018-08-25T02:50:09.029Z,99698.47
2018-08-25T02:52:38.842Z,99695.78
2018-08-25T02:55:09.159Z,99695.25
2018-08-25T02:57:39.097Z,99699.58
2018-08-25T03:00:08.968Z,99701.53
2018-08-25T03:02:40.064Z,99697.52
2018-08-25T03:05:09.862Z,99695.98
2018-08-25T03:07:41.274Z,99698.97
2018-08-25T03:10:12.110Z,99700.09
2018-08-25T03:12:43.590Z,99692.05
2018-08-25T03:15:14.099Z,99687.31
2018-08-25T03:17:45.228Z,99688.15
2018-08-25T03:20:16.009Z,99685.55
2018-08-25T03:22:47.026Z,99682.72
2018-08-25T03:25:17.093Z,99681.68
2018-08-25T03:27:48.233Z,99685.17
2018-08-25T03:30:19.049Z,99673.91
2018-08-25T03:32:50.289Z,99672.69
2018-08-25T03:35:21.118Z,99674.86
2018-08-25T03:37:52.433Z,99674.33
2018-08-25T03:40:23.147Z,99679.49
2018-08-25T03:42:54.284Z,99685.97
2018-08-25T03:45:25.134Z,99691.33
2018-08-25T03:47:56.169Z,99694.54
2018-08-25T03:50:26.965Z,99711.65
2018-08-25T03:52:58.170Z,99711.11
2018-08-25T03:55:29.077Z,99713.48
2018-08-25T03:58:00.106Z,99715.55
2018-08-25T04:00:33.469Z,99720.09
2018-08-25T04:03:04.063Z,99718.02
2018-08-25T04:05:33.941Z,99716.91
2018-08-25T04:08:04.015Z,99715.26
2018-08-25T04:10:34.946Z,99734.20
2018-08-25T04:13:06.300Z,99735.45
2018-08-25T04:15:37.482Z,99741.11
2018-08-25T04:18:08.092Z,99744.61
2018-08-25T04:20:39.207Z,99733.58
2018-08-25T04:23:10.049Z,99727.92
2018-08-25T04:25:41.194Z,99731.10
2018-08-25T04:28:12.364Z,99726.37
2018-08-25T04:30:43.362Z,99717.52
2018-08-25T04:33:14.241Z,99724.84
2018-08-25T04:35:45.221Z,99713.19
2018-08-25T04:38:16.085Z,99713.52
2018-08-25T04:40:47.381Z,99724.00
2018-08-25T04:43:18.034Z,99717.00
2018-08-25T04:45:49.105Z,99719.36
2018-08-25T04:48:19.933Z,99722.47
2018-08-25T04:50:51.128Z,99722.04
2018-08-25T04:53:21.853Z,99703.11
2018-08-25T04:55:53.357Z,99697.32
2018-08-25T04:58:23.141Z,99694.64
2018-08-25T05:00:54.519Z,99701.46
2018-08-25T05:03:25.044Z,99702.27
2018-08-25T05:05:56.202Z,99705.66
2018-08-25T05:08:27.209Z,99690.73
2018-08-25T05:10:58.196Z,99699.89
2018-08-25T05:13:29.074Z,99711.02
2018-08-25T05:16:00.104Z,99707.11
2018-08-25T05:18:31.353Z,99706.37
2018-08-25T05:21:02.449Z,99708.32
2018-08-25T05:23:33.085Z,99718.84
2018-08-25T05:26:04.204Z,99723.89
2018-08-25T05:28:35.049Z,99724.92
2018-08-25T05:31:06.132Z,99727.59
2018-08-25T05:33:37.102Z,99728.72
2018-08-25T05:36:08.254Z,99724.30
2018-08-25T05:38:39.290Z,99725.23
2018-08-25T05:41:10.553Z,99725.85
2018-08-25T05:43:41.140Z,99715.14
2018-08-25T05:46:11.093Z,99726.26
2018-08-25T05:48:42.030Z,99729.25
2018-08-25T05:51:13.721Z,99732.11
2018-08-25T05:53:45.190Z,99739.64
2018-08-25T05:56:15.214Z,99728.63
2018-08-25T05:58:46.309Z,99724.30
2018-08-25T06:01:17.088Z,99726.26
2018-08-25T06:03:48.177Z,99723.98
2018-08-25T06:06:18.981Z,99711.72
2018-08-25T06:08:50.506Z,99716.97
2018-08-25T06:11:21.032Z,99727.30
2018-08-25T06:13:51.990Z,99734.20
2018-08-25T06:16:22.845Z,99734.32
2018-08-25T06:18:54.494Z,99739.97
2018-08-25T06:21:26.692Z,99727.41
2018-08-25T06:23:56.778Z,99717.42
2018-08-25T06:26:27.116Z,99726.27
2018-08-25T06:28:58.680Z,99738.84
2018-08-25T06:31:29.589Z,99747.10
2018-08-25T06:34:00.670Z,99750.28
2018-08-25T06:36:31.311Z,99734.84
2018-08-25T06:39:10.349Z,99731.63
2018-08-25T06:41:40.205Z,99737.41
2018-08-25T06:44:09.973Z,99726.37
2018-08-25T06:46:39.875Z,99721.55
2018-08-25T06:49:10.602Z,99721.88
2018-08-25T06:51:41.008Z,99734.48
2018-08-25T06:54:10.873Z,99734.91
2018-08-25T06:56:40.916Z,99741.91
2018-08-25T06:59:10.896Z,99748.92
2018-08-25T07:01:40.886Z,99746.27
2018-08-25T07:04:12.822Z,99745.23
2018-08-25T07:06:43.212Z,99739.25
2018-08-25T07:09:14.546Z,99722.55
2018-08-25T07:11:45.112Z,99731.21
2018-08-25T07:14:16.234Z,99745.15
2018-08-25T07:16:47.061Z,99755.25
2018-08-25T07:19:18.213Z,99754.83
2018-08-25T07:21:49.009Z,99757.42
2018-08-25T07:24:20.188Z,99756.09
2018-08-25T07:26:51.082Z,99754.94
2018-08-25T07:29:22.054Z,99756.39
2018-08-25T07:31:52.591Z,99757.94
2018-08-25T07:34:23.549Z,99758.63
2018-08-25T07:36:54.102Z,99761.44
2018-08-25T07:39:25.163Z,99764.73
2018-08-25T07:41:55.961Z,99765.53
2018-08-25T07:44:27.077Z,99751.09
2018-08-25T07:46:57.924Z,99766.35
2018-08-25T07:49:29.053Z,99760.68
2018-08-25T07:51:59.960Z,99774.39
2018-08-25T07:54:32.686Z,99769.64
2018-08-25T07:57:03.307Z,99764.59
2018-08-25T07:59:33.299Z,99759.42
2018-08-25T08:02:04.385Z,99759.31
2018-08-25T08:04:35.669Z,99753.91
2018-08-25T08:07:06.616Z,99740.69
2018-08-25T08:09:37.257Z,99741.10
2018-08-25T08:12:08.474Z,99742.02
2018-08-25T08:14:39.545Z,99746.73
2018-08-25T08:17:10.511Z,99745.60
2018-08-25T08:19:41.568Z,99748.04
2018-08-25T08:22:12.100Z,99740.00
2018-08-25T08:24:42.113Z,99737.91
2018-08-25T08:27:14.467Z,99736.89
2018-08-25T08:29:44.240Z,99737.48
2018-08-25T08:32:15.255Z,99739.98
2018-08-25T08:34:46.162Z,99748.08
2018-08-25T08:37:17.178Z,99745.14
2018-08-25T08:39:47.990Z,99750.03
2018-08-25T08:42:19.039Z,99755.41
2018-08-25T08:44:50.302Z,99743.42
2018-08-25T08:47:21.578Z,99745.06
2018-08-25T08:49:52.250Z,99760.27
2018-08-25T08:52:23.689Z,99759.76
2018-08-25T08:54:54.261Z,99765.63
2018-08-25T08:57:25.162Z,99766.95
2018-08-25T08:59:56.535Z,99765.50
2018-08-25T09:02:27.435Z,99769.27
2018-08-25T09:04:58.095Z,99762.48
2018-08-25T09:07:29.187Z,99767.93
2018-08-25T09:10:00.048Z,99765.98
2018-08-25T09:12:31.045Z,99762.59
2018-08-25T09:15:00.909Z,99758.36
2018-08-25T09:17:32.519Z,99762.73
2018-08-25T09:20:03.074Z,99757.75
2018-08-25T09:22:34.119Z,99758.86
2018-08-25T09:25:04.971Z,99762.60
2018-08-25T09:27:36.170Z,99759.59
2018-08-25T09:30:07.235Z,99760.75
2018-08-25T09:32:38.146Z,99753.68
2018-08-25T09:35:09.142Z,99750.95
2018-08-25T09:37:40.140Z,99750.11
2018-08-25T09:40:10.933Z,99741.02
2018-08-25T09:42:42.358Z,99738.14
2018-08-25T09:45:13.067Z,99742.72
2018-08-25T09:47:44.130Z,99745.28
2018-08-25T09:50:15.170Z,99738.61
2018-08-25T09:52:46.237Z,99739.31
2018-08-25T09:55:17.099Z,99736.91
2018-08-25T09:57:48.158Z,99732.23
2018-08-25T10:00:18.957Z,99732.45
2018-08-25T10:02:51.264Z,99729.27
2018-08-25T10:05:22.721Z,99715.59
2018-08-25T10:07:52.959Z,99715.43
2018-08-25T10:10:23.082Z,99710.95
2018-08-25T10:12:54.066Z,99715.98
2018-08-25T10:15:24.873Z,99714.57
2018-08-25T10:17:56.481Z,99707.02
2018-08-25T10:20:27.048Z,99705.19
2018-08-25T10:22:59.241Z,99702.91
2018-08-25T10:25:29.509Z,99691.42
2018-08-25T10:28:00.384Z,99701.33
2018-08-25T10:30:31.716Z,99706.85
2018-08-25T10:33:03.965Z,99696.52
2018-08-25T10:35:33.910Z,99703.14
2018-08-25T10:38:03.885Z,99700.61
2018-08-25T10:40:36.562Z,99701.59
2018-08-25T10:43:06.440Z,99702.33
2018-08-25T10:45:38.262Z,99699.30
2018-08-25T10:48:08.423Z,99707.24
2018-08-25T10:50:40.180Z,99702.33
2018-08-25T10:53:13.839Z,99707.28
2018-08-25T10:55:43.987Z,99703.75
2018-08-25T10:58:13.807Z,99707.23
2018-08-25T11:00:43.903Z,99704.31
2018-08-25T11:03:14.081Z,99698.65
2018-08-25T11:05:44.897Z,99690.73
2018-08-25T11:08:16.268Z,99697.68
2018-08-25T11:10:47.502Z,99692.35
2018-08-25T11:13:18.154Z,99692.09
2018-08-25T11:15:49.181Z,99693.16
2018-08-25T11:18:20.615Z,99694.03
2018-08-25T11:20:51.125Z,99687.46
2018-08-25T11:23:21.989Z,99687.46
2018-08-25T11:25:53.092Z,99692.86
2018-08-25T11:28:24.119Z,99692.77
2018-08-25T11:30:55.085Z,99683.19
2018-08-25T11:33:26.034Z,99674.44
2018-08-25T11:35:56.954Z,99672.96
2018-08-25T11:38:28.188Z,99678.30
2018-08-25T11:41:00.051Z,99681.36
2018-08-25T11:43:30.161Z,99677.33
2018-08-25T11:46:00.956Z,99682.31
2018-08-25T11:48:32.151Z,99674.16
2018-08-25T11:51:03.074Z,99671.06
2018-08-25T11:53:34.190Z,99670.88
2018-08-25T11:56:04.962Z,99667.88
2018-08-25T11:58:36.113Z,99668.36
2018-08-25T12:01:07.300Z,99671.52
2018-08-25T12:03:38.179Z,99674.80
2018-08-25T12:06:10.157Z,99670.16
2018-08-25T12:08:40.096Z,99666.69
2018-08-25T12:11:10.812Z,99676.75
2018-08-25T12:13:42.241Z,99685.20
2018-08-25T12:16:13.039Z,99682.22
2018-08-25T12:18:44.053Z,99681.54
2018-08-25T12:21:14.881Z,99682.29
2018-08-25T12:23:46.325Z,99682.69
2018-08-25T12:26:17.161Z,99681.06
2018-08-25T12:28:48.375Z,99675.33
2018-08-25T12:31:19.270Z,99681.42
2018-08-25T12:33:50.463Z,99674.96
2018-08-25T12:36:21.178Z,99665.92
2018-08-25T12:38:51.128Z,99675.92
2018-08-25T12:41:22.030Z,99674.50
2018-08-25T12:43:52.906Z,99672.86
2018-08-25T12:46:24.629Z,99653.72
2018-08-25T12:48:55.258Z,99668.11
2018-08-25T12:51:26.202Z,99667.34
2018-08-25T12:53:57.021Z,99659.98
2018-08-25T12:56:29.765Z,99659.36
2018-08-25T12:58:59.616Z,99661.84
2018-08-25T13:01:30.512Z,99660.42
2018-08-25T13:04:01.095Z,99655.12
2018-08-25T13:06:32.093Z,99653.47
2018-08-25T13:09:03.113Z,99649.42
2018-08-25T13:11:34.134Z,99653.47
2018-08-25T13:14:05.212Z,99648.20
2018-08-25T13:16:36.167Z,99643.44
2018-08-25T13:19:07.345Z,99645.38
2018-08-25T13:21:39.265Z,99638.81
2018-08-25T13:24:09.100Z,99644.39
2018-08-25T13:26:41.072Z,99630.30
2018-08-25T13:29:10.959Z,99638.52
2018-08-25T13:31:43.243Z,99634.95
2018-08-25T13:34:13.108Z,99634.56
2018-08-25T13:36:44.390Z,99631.38
2018-08-25T13:39:15.044Z,99626.36
2018-08-25T13:41:46.358Z,99626.56
2018-08-25T13:44:17.100Z,99624.32
2018-08-25T13:46:49.346Z,99617.39
2018-08-25T13:49:19.305Z,99618.19
2018-08-25T13:51:51.261Z,99624.94
2018-08-25T13:54:21.198Z,99628.37
2018-08-25T13:56:52.166Z,99627.05
2018-08-25T13:59:23.130Z,99622.78
2018-08-25T14:01:53.964Z,99622.39
2018-08-25T14:04:25.518Z,99622.81
2018-08-25T14:06:56.125Z,99623.27
2018-08-25T14:09:27.295Z,99627.72
2018-08-25T14:11:58.159Z,99619.54
2018-08-25T14:14:29.224Z,99625.48
2018-08-25T14:17:00.103Z,99620.59
2018-08-25T14:19:31.145Z,99629.64
2018-08-25T14:22:02.243Z,99623.27
2018-08-25T14:24:33.206Z,99630.13
2018-08-25T14:27:04.167Z,99629.91
2018-08-25T14:29:35.147Z,99619.66
2018-08-25T14:32:05.885Z,99614.02
2018-08-25T14:34:36.052Z,99621.31
2018-08-25T14:37:07.341Z,99618.80
2018-08-25T14:39:38.654Z,99624.77
2018-08-25T14:42:09.266Z,99617.09
2018-08-25T14:44:40.273Z,99624.88
2018-08-25T14:47:11.127Z,99626.06
2018-08-25T14:49:42.330Z,99622.52
2018-08-25T14:52:14.680Z,99636.22
2018-08-25T14:54:49.674Z,99633.84
2018-08-25T14:57:19.620Z,99643.61
2018-08-25T14:59:49.623Z,99649.03
2018-08-25T15:02:20.057Z,99659.83
2018-08-25T15:04:50.320Z,99654.80
2018-08-25T15:07:21.257Z,99663.04
2018-08-25T15:09:51.157Z,99668.03
2018-08-25T15:12:22.638Z,99665.42
2018-08-25T15:14:52.594Z,99669.76
2018-08-25T15:17:23.694Z,99667.22
2018-08-25T15:19:54.278Z,99669.91
2018-08-25T15:22:25.333Z,99675.00
2018-08-25T15:24:56.138Z,99671.17
2018-08-25T15:27:28.719Z,99676.10
2018-08-25T15:29:58.545Z,99679.64
2018-08-25T15:32:29.617Z,99680.73
2018-08-25T15:35:00.113Z,99682.77
2018-08-25T15:37:31.619Z,99683.05
2018-08-25T15:40:02.119Z,99685.94
2018-08-25T15:42:33.166Z,99685.44
2018-08-25T15:45:03.981Z,99680.08
2018-08-25T15:47:35.031Z,99684.08
2018-08-25T15:50:06.104Z,99690.34
2018-08-25T15:52:37.290Z,99695.08
2018-08-25T15:55:08.986Z,99688.78
2018-08-25T15:57:39.480Z,99686.89
2018-08-25T16:00:14.286Z,99689.04
2018-08-25T16:02:48.523Z,99683.91
2018-08-25T16:05:20.885Z,99688.23
2018-08-25T16:07:53.246Z,99680.22
2018-08-25T16:10:24.185Z,99676.66
2018-08-25T16:12:54.370Z,99675.44
2018-08-25T16:15:24.159Z,99672.04
2018-08-25T16:17:54.373Z,99670.20
2018-08-25T16:20:24.333Z,99667.66
2018-08-25T16:22:54.773Z,99668.33
2018-08-25T16:25:25.398Z,99661.84
2018-08-25T16:28:01.877Z,99662.64
2018-08-25T16:30:31.891Z,99667.73
2018-08-25T16:33:01.906Z,99660.56
2018-08-25T16:35:32.218Z,99661.40
2018-08-25T16:38:02.432Z,99663.79
2018-08-25T16:40:32.391Z,99664.00
2018-08-25T16:43:03.369Z,99662.42
2018-08-25T16:45:34.105Z,99657.05
2018-08-25T16:48:04.185Z,99658.69
2018-08-25T16:50:34.184Z,99639.86
2018-08-25T16:53:04.091Z,99658.09
2018-08-25T16:55:34.850Z,99652.86
2018-08-25T16:58:05.015Z,99656.45
2018-08-25T17:00:35.064Z,99651.66
2018-08-25T17:03:04.937Z,99656.30
2018-08-25T17:05:37.115Z,99655.70
2018-08-25T17:08:08.521Z,99653.52
2018-08-25T17:10:38.906Z,99654.20
2018-08-25T17:13:08.797Z,99650.92
2018-08-25T17:15:40.959Z,99622.98
2018-08-25T17:18:11.331Z,99649.93
2018-08-25T17:20:42.297Z,99652.86
2018-08-25T17:23:13.511Z,99657.64
2018-08-25T17:25:44.320Z,99649.48
2018-08-25T17:28:15.120Z,99650.17
2018-08-25T17:30:46.112Z,99662.72
2018-08-25T17:33:16.970Z,99661.73
2018-08-25T17:35:48.170Z,99666.72
2018-08-25T17:38:20.054Z,99661.42
2018-08-25T17:40:52.117Z,99671.64
2018-08-25T17:43:21.907Z,99678.50
2018-08-25T17:45:51.941Z,99688.36
2018-08-25T17:48:24.635Z,99681.48
2018-08-25T17:50:54.470Z,99690.52
2018-08-25T17:53:25.620Z,99688.48
2018-08-25T17:55:56.142Z,99694.00
2018-08-25T17:58:27.184Z,99700.25
2018-08-25T18:00:58.029Z,99712.89
2018-08-25T18:03:29.372Z,99717.05
2018-08-25T18:06:00.450Z,99702.81
2018-08-25T18:08:31.226Z,99714.16
2018-08-25T18:11:02.175Z,99718.33
2018-08-25T18:13:33.464Z,99718.15
2018-08-25T18:16:04.139Z,99722.31
2018-08-25T18:18:35.130Z,99732.75
2018-08-25T18:21:06.184Z,99726.30
2018-08-25T18:23:37.242Z,99734.07
2018-08-25T18:26:08.337Z,99738.76
2018-08-25T18:28:39.527Z,99728.27
2018-08-25T18:31:10.146Z,99736.22
2018-08-25T18:33:41.062Z,99729.86
2018-08-25T18:36:12.076Z,99739.69
2018-08-25T18:38:43.233Z,99751.88
2018-08-25T18:41:14.103Z,99751.89
2018-08-25T18:43:46.169Z,99750.88
2018-08-25T18:46:16.380Z,99758.20
2018-08-25T18:48:47.212Z,99763.48
2018-08-25T18:51:17.135Z,99762.26
2018-08-25T18:53:48.126Z,99768.36
2018-08-25T18:56:19.001Z,99767.05
2018-08-25T18:58:50.143Z,99776.66
2018-08-25T19:01:20.992Z,99774.29
2018-08-25T19:03:53.008Z,99761.91
2018-08-25T19:06:23.055Z,99765.41
2018-08-25T19:08:54.205Z,99769.53
2018-08-25T19:11:25.160Z,99773.25
2018-08-25T19:13:57.250Z,99758.63
2018-08-25T19:16:27.141Z,99778.41
2018-08-25T19:18:58.308Z,99779.14
2018-08-25T19:21:29.276Z,99779.67
2018-08-25T19:24:00.318Z,99786.26
2018-08-25T19:26:31.309Z,99777.59
2018-08-25T19:29:02.284Z,99790.39
2018-08-25T19:31:32.665Z,99787.09
2018-08-25T19:34:03.856Z,99797.20
2018-08-25T19:36:33.981Z,99804.73
2018-08-25T19:39:07.771Z,99815.77
2018-08-25T19:41:38.140Z,99822.16
2018-08-25T19:44:08.332Z,99822.97
2018-08-25T19:46:39.569Z,99828.64
2018-08-25T19:49:09.646Z,99836.06
2018-08-25T19:51:40.169Z,99832.45
2018-08-25T19:54:11.923Z,99835.36
2018-08-25T19:56:42.248Z,99828.53
2018-08-25T19:59:13.280Z,99823.71
2018-08-25T20:01:44.522Z,99836.58
2018-08-25T20:04:15.446Z,99841.94
2018-08-25T20:06:46.297Z,99851.94
2018-08-25T20:09:17.497Z,99847.61
2018-08-25T20:11:51.008Z,99844.92
2018-08-25T20:14:21.220Z,99851.13
2018-08-25T20:16:51.125Z,99851.13
2018-08-25T20:19:21.010Z,99859.17
2018-08-25T20:21:51.916Z,99860.52
2018-08-25T20:24:23.158Z,99862.66
2018-08-25T20:26:54.285Z,99869.36
2018-08-25T20:29:25.211Z,99866.91
2018-08-25T20:31:56.209Z,99864.22
2018-08-25T20:34:26.375Z,99870.08
2018-08-25T20:36:57.414Z,99871.42
2018-08-25T20:39:28.292Z,99859.89
2018-08-25T20:41:59.455Z,99868.43
2018-08-25T20:44:30.217Z,99875.97
2018-08-25T20:47:01.538Z,99881.52
2018-08-25T20:49:32.113Z,99878.84
2018-08-25T20:52:03.918Z,99876.70
2018-08-25T20:54:33.822Z,99875.66
2018-08-25T20:57:05.130Z,99880.19
2018-08-25T20:59:35.227Z,99879.37
2018-08-25T21:02:06.442Z,99879.87
2018-08-25T21:04:37.245Z,99888.45
2018-08-25T21:07:13.585Z,99883.89
2018-08-25T21:09:45.124Z,99880.09
2018-08-25T21:12:15.098Z,99876.39
2018-08-25T21:14:45.097Z,99878.22
2018-08-25T21:17:15.015Z,99886.48
2018-08-25T21:19:45.056Z,99889.16
2018-08-25T21:22:15.331Z,99895.43
2018-08-25T21:24:45.364Z,99889.77
2018-08-25T21:27:16.257Z,99901.82
2018-08-25T21:29:48.118Z,99901.51
2018-08-25T21:32:18.077Z,99905.53
2018-08-25T21:34:49.258Z,99910.58
2018-08-25T21:37:20.195Z,99906.78
2018-08-25T21:39:51.653Z,99911.98
2018-08-25T21:42:22.546Z,99911.36
2018-08-25T21:44:53.410Z,99910.95
2018-08-25T21:47:24.268Z,99908.15
2018-08-25T21:49:55.879Z,99917.13
2018-08-25T21:52:25.941Z,99921.55
2018-08-25T21:54:57.201Z,99927.30
2018-08-25T21:57:31.022Z,99919.77
2018-08-25T22:00:01.193Z,99922.41
2018-08-25T22:02:31.345Z,99929.10
2018-08-25T22:19:11.328Z,99919.91
2018-08-25T22:21:41.166Z,99935.11
2018-08-25T22:24:11.337Z,99942.94
2018-08-25T22:26:41.333Z,99948.29
2018-08-25T22:29:11.225Z,99957.34
2018-08-25T22:31:41.455Z,99950.03
2018-08-25T22:34:11.239Z,99948.19
2018-08-25T22:36:41.318Z,99952.70
2018-08-25T22:39:12.840Z,99966.30
2018-08-25T22:41:42.745Z,99964.97
2018-08-25T22:44:13.574Z,99955.78
2018-08-25T22:46:43.466Z,99964.52
2018-08-25T22:49:13.410Z,99951.75
2018-08-25T22:51:43.254Z,99958.36
2018-08-25T22:54:13.414Z,99958.67
2018-08-25T22:56:43.514Z,99963.50
2018-08-25T22:59:13.367Z,99955.47
2018-08-25T23:01:43.310Z,99933.98
2018-08-25T23:04:13.157Z,99943.95
2018-08-25T23:06:43.196Z,99940.95
2018-08-25T23:09:13.382Z,99932.30
2018-08-25T23:11:48.422Z,99933.64
2018-08-25T23:14:18.393Z,99928.77
2018-08-25T23:16:48.294Z,99930.64
2018-08-25T23:19:18.126Z,99938.67
2018-08-25T23:21:48.236Z,99947.20
2018-08-25T23:24:18.597Z,99945.77
2018-08-25T23:26:48.501Z,99953.56
2018-08-25T23:29:18.365Z,99936.03
2018-08-25T23:31:48.279Z,99944.28
2018-08-25T23:34:18.201Z,99942.00
2018-08-25T23:36:48.459Z,99939.00
2018-08-25T23:39:18.798Z,99948.77
2018-08-25T23:41:48.686Z,99943.91
2018-08-25T23:44:18.603Z,99945.15
2018-08-25T23:46:48.826Z,99955.54
2018-08-25T23:49:18.687Z,99955.54
2018-08-25T23:51:48.853Z,99955.41
2018-08-25T23:54:18.771Z,99961.99
2018-08-25T23:56:48.748Z,99963.20
2018-08-25T23:59:18.624Z,99960.42
